Time;durP1;ratioP1;P1;durP2;ratioP2;P2;SDS_P1;SDS_P2;PMS_P1;PMS_P2;Temp;Humidity;BMP_temperature;BMP_pressure;BME280_temperature;BME280_humidity;BME280_pressure;Samples;Min_cycle;Max_cycle;Signal;HPM_P1;HPM_P2
2023/02/20 00:01:26;;;;;;;8.15;6.22;;;;;;;5.01;100.00;102604.56;5131086;27;20293;-36
2023/02/20 00:03:51;;;;;;;9.75;6.88;;;;;;;5.01;100.00;102601.91;5131468;27;20070;-36
2023/02/20 00:06:16;;;;;;;8.93;6.47;;;;;;;5.05;100.00;102614.00;5131240;27;20106;-36
2023/02/20 00:08:42;;;;;;;9.07;6.07;;;;;;;5.06;100.00;102603.13;5130797;27;20150;-36
2023/02/20 00:11:07;;;;;;;7.77;5.43;;;;;;;5.04;100.00;102589.03;5131589;28;20473;-35
2023/02/20 00:13:33;;;;;;;9.13;6.30;;;;;;;5.11;100.00;102586.59;5121773;28;20024;-36
2023/02/20 00:15:58;;;;;;;10.20;5.80;;;;;;;5.13;100.00;102588.13;5117296;28;20387;-35
2023/02/20 00:18:24;;;;;;;8.37;6.67;;;;;;;5.14;100.00;102587.13;5116939;28;20038;-35
2023/02/20 00:20:49;;;;;;;7.18;6.40;;;;;;;5.13;100.00;102579.25;5117143;28;20046;-36
2023/02/20 00:23:14;;;;;;;8.73;6.60;;;;;;;5.10;100.00;102568.81;5117430;28;20030;-35
2023/02/20 00:25:40;;;;;;;8.40;6.90;;;;;;;5.15;100.00;102585.28;5117193;28;20023;-36
2023/02/20 00:28:05;;;;;;;11.17;7.10;;;;;;;5.06;100.00;102564.75;5116771;28;20027;-36
2023/02/20 00:30:30;;;;;;;9.23;7.07;;;;;;;5.16;100.00;102579.75;5117586;28;20395;-35
2023/02/20 00:32:56;;;;;;;10.87;7.13;;;;;;;5.16;100.00;102570.88;5116347;28;20352;-35
2023/02/20 00:35:24;;;;;;;9.50;7.22;;;;;;;5.16;100.00;102562.81;5116635;28;20024;-36
2023/02/20 00:37:50;;;;;;;10.10;7.57;;;;;;;5.10;100.00;102555.41;5116296;28;20020;-36
2023/02/20 00:40:16;;;;;;;;;;;;;;;5.21;100.00;102557.84;5117250;28;20055;-35
2023/02/20 00:42:42;;;;;;;11.30;7.55;;;;;;;5.14;100.00;102554.94;5117187;28;19912;-36
2023/02/20 00:45:08;;;;;;;11.57;7.50;;;;;;;5.11;100.00;102549.88;5117266;28;20027;-36
2023/02/20 00:47:34;;;;;;;10.95;7.63;;;;;;;5.10;100.00;102540.16;5116367;27;20031;-36
2023/02/20 00:49:59;;;;;;;11.50;7.50;;;;;;;5.05;100.00;102523.69;5116047;28;20047;-36
2023/02/20 00:52:25;;;;;;;12.80;8.37;;;;;;;5.10;100.00;102528.59;5116320;27;20059;-36
2023/02/20 00:54:50;;;;;;;12.52;8.55;;;;;;;5.10;100.00;102531.28;5116870;28;20054;-36
2023/02/20 00:57:16;;;;;;;12.93;8.50;;;;;;;5.10;100.00;102528.59;5116125;28;20027;-36
2023/02/20 00:59:41;;;;;;;9.60;7.73;;;;;;;5.00;100.00;102514.41;5116704;28;20039;-35
2023/02/20 01:02:07;;;;;;;14.30;8.67;;;;;;;5.04;100.00;102527.38;5116244;28;20052;-36
2023/02/20 01:04:33;;;;;;;;;;;;;;;5.07;100.00;102519.00;5116077;28;20066;-36
2023/02/20 01:06:58;;;;;;;11.10;7.50;;;;;;;5.00;100.00;102525.97;5115996;28;19912;-36
2023/02/20 01:09:25;;;;;;;10.63;8.37;;;;;;;5.01;100.00;102530.34;5116528;28;20036;-36
2023/02/20 01:11:50;;;;;;;11.75;8.23;;;;;;;4.98;100.00;102529.78;5115842;28;20036;-36
2023/02/20 01:14:16;;;;;;;11.65;8.50;;;;;;;5.00;100.00;102530.50;5115820;28;20169;-35
2023/02/20 01:16:46;;;;;;;11.87;8.10;;;;;;;5.00;100.00;102538.56;5114592;28;20027;-36
2023/02/20 01:19:12;;;;;;;12.32;8.38;;;;;;;5.00;100.00;102546.59;5115468;28;20023;-35
2023/02/20 01:21:37;;;;;;;10.20;8.25;;;;;;;4.96;100.00;102538.00;5115593;28;20028;-36
2023/02/20 01:24:02;;;;;;;12.45;8.25;;;;;;;4.90;100.00;102528.75;5116061;28;20032;-36
2023/02/20 01:26:28;;;;;;;10.73;8.10;;;;;;;4.91;100.00;102535.78;5115070;28;20031;-36
2023/02/20 01:28:54;;;;;;;10.68;8.63;;;;;;;4.91;100.00;102530.41;5116163;28;20114;-36
2023/02/20 01:31:19;;;;;;;12.20;8.23;;;;;;;4.85;100.00;102509.59;5115750;28;20028;-35
2023/02/20 01:33:44;;;;;;;11.67;8.10;;;;;;;4.88;100.00;102520.00;5115501;28;20024;-36
2023/02/20 01:36:10;;;;;;;11.70;8.40;;;;;;;4.89;100.00;102515.50;5115456;28;20059;-35
2023/02/20 01:38:38;;;;;;;13.07;9.20;;;;;;;4.85;100.00;102514.94;5115683;28;20058;-36
2023/02/20 01:41:03;;;;;;;11.57;8.65;;;;;;;4.81;100.00;102508.22;5115577;28;20023;-36
2023/02/20 01:43:29;;;;;;;11.60;8.27;;;;;;;4.86;100.00;102513.09;5116047;28;20027;-36
2023/02/20 01:46:26;;;;;;;10.67;8.40;;;;;;;4.84;100.00;102502.56;5115322;28;20106;-35
2023/02/20 01:49:38;;;;;;;13.88;8.85;;;;;;;4.83;100.00;102494.63;5115439;28;20383;-36
2023/02/20 01:52:18;;;;;;;12.30;8.70;;;;;;;4.79;100.00;102483.41;5114804;28;20118;-35
2023/02/20 01:54:53;;;;;;;12.15;9.25;;;;;;;4.78;100.00;102467.47;5113833;28;20043;-36
2023/02/20 01:57:22;;;;;;;10.82;8.68;;;;;;;4.77;100.00;102450.53;5114747;28;20519;-36
2023/02/20 01:59:51;;;;;;;11.75;9.02;;;;;;;4.73;100.00;102456.34;5114919;28;20070;-35
2023/02/20 02:02:16;;;;;;;12.18;9.00;;;;;;;4.68;100.00;102437.22;5114364;28;20481;-35
2023/02/20 02:04:44;;;;;;;12.85;10.15;;;;;;;4.66;100.00;102429.34;5115193;28;20028;-36
2023/02/20 02:07:09;;;;;;;12.23;8.63;;;;;;;4.63;100.00;102408.19;5114810;28;20023;-35
2023/02/20 02:09:46;;;;;;;12.00;8.25;;;;;;;4.61;100.00;102399.47;5115614;28;20103;-35
2023/02/20 02:12:11;;;;;;;10.63;8.82;;;;;;;4.67;100.00;102414.09;5114802;28;20056;-36
2023/02/20 02:14:37;;;;;;;16.63;10.73;;;;;;;4.58;100.00;102400.63;5115301;28;20028;-35
2023/02/20 02:17:40;;;;;;;12.77;9.57;;;;;;;4.65;100.00;102412.41;5114658;28;20034;-35
2023/02/20 02:20:37;;;;;;;12.90;9.00;;;;;;;4.67;100.00;102419.47;5114190;28;20040;-36
2023/02/20 02:23:32;;;;;;;13.90;9.05;;;;;;;4.52;100.00;102395.03;5115321;28;20405;-36
2023/02/20 02:26:35;;;;;;;13.00;9.18;;;;;;;4.64;100.00;102415.25;5115083;28;20023;-35
2023/02/20 02:29:22;;;;;;;14.27;9.90;;;;;;;4.58;100.00;102405.97;5114159;28;20220;-36
2023/02/20 02:32:05;;;;;;;15.02;10.00;;;;;;;4.62;100.00;102411.88;5114179;28;20031;-35
2023/02/20 02:34:42;;;;;;;13.88;10.10;;;;;;;4.61;100.00;102423.59;5114407;28;20072;-35
2023/02/20 02:37:18;;;;;;;13.90;10.35;;;;;;;4.62;100.00;102417.22;5114249;28;20023;-36
2023/02/20 02:40:00;;;;;;;16.75;11.30;;;;;;;4.64;100.00;102407.22;5114083;28;20539;-36
2023/02/20 02:43:06;;;;;;;17.17;12.50;;;;;;;4.67;100.00;102404.22;5114468;28;20037;-37
2023/02/20 02:46:01;;;;;;;19.48;12.68;;;;;;;4.61;100.00;102394.13;5114895;28;20024;-36
2023/02/20 02:48:36;;;;;;;17.10;12.68;;;;;;;4.73;100.00;102397.41;5114175;28;20067;-36
2023/02/20 02:51:14;;;;;;;17.92;13.77;;;;;;;4.67;100.00;102380.09;5114517;28;20038;-36
2023/02/20 02:53:40;;;;;;;20.10;14.32;;;;;;;4.70;100.00;102378.97;5114656;28;20111;-36
2023/02/20 02:56:20;;;;;;;20.20;15.07;;;;;;;4.79;100.00;102386.06;5114461;28;20052;-35
2023/02/20 02:58:49;;;;;;;21.85;15.25;;;;;;;4.79;100.00;102389.59;5113845;28;20598;-37
2023/02/20 03:01:19;;;;;;;19.73;14.88;;;;;;;4.80;100.00;102377.88;5114096;28;20361;-36
2023/02/20 03:03:47;;;;;;;19.38;15.55;;;;;;;4.84;100.00;102384.63;5114547;28;20043;-36
2023/02/20 03:06:28;;;;;;;25.35;19.08;;;;;;;4.88;100.00;102369.03;5114044;28;20023;-36
2023/02/20 03:09:02;;;;;;;25.63;18.25;;;;;;;4.93;100.00;102384.66;5114564;28;20031;-36
2023/02/20 03:11:30;;;;;;;23.88;18.88;;;;;;;4.96;100.00;102376.31;5114009;28;20043;-36
2023/02/20 03:17:06;;;;;;;26.88;21.45;;;;;;;4.99;100.00;102376.00;5113893;28;20122;-36
2023/02/20 03:19:53;;;;;;;30.45;22.00;;;;;;;5.03;100.00;102372.84;5114478;28;20016;-36
2023/02/20 03:22:29;;;;;;;32.13;23.00;;;;;;;5.04;100.00;102366.50;5113595;28;20122;-36
2023/02/20 03:25:02;;;;;;;30.45;22.65;;;;;;;5.01;100.00;102356.06;5113885;28;20032;-36
2023/02/20 03:27:46;;;;;;;29.73;23.63;;;;;;;5.11;100.00;102375.56;5113351;28;20353;-36
2023/02/20 03:30:20;;;;;;;33.90;22.85;;;;;;;5.12;100.00;102365.69;5114075;28;20066;-36
2023/02/20 03:43:59;;;;;;;31.77;23.48;;;;;;;5.18;100.00;102357.03;5114001;28;20058;-36
2023/02/20 03:46:26;;;;;;;30.38;24.20;;;;;;;5.22;100.00;102345.00;5113941;28;20032;-36
2023/02/20 03:48:59;;;;;;;31.90;23.80;;;;;;;5.23;100.00;102343.97;5115796;28;20062;-36
2023/02/20 03:51:25;;;;;;;36.05;25.92;;;;;;;5.27;100.00;102349.84;5117398;28;20031;-35
2023/02/20 03:53:51;;;;;;;;;;;;;;;5.31;100.00;102341.31;5118428;28;20027;-36
2023/02/20 03:56:21;;;;;;;30.67;23.35;;;;;;;5.29;100.00;102351.38;5117906;28;19929;-35
2023/02/20 03:58:57;;;;;;;30.67;24.13;;;;;;;5.21;100.00;102335.22;5117094;27;20042;-35
2023/02/20 04:01:25;;;;;;;28.15;22.92;;;;;;;5.32;100.00;102353.75;5117725;28;20480;-35
2023/02/20 04:03:55;;;;;;;28.73;22.85;;;;;;;5.34;100.00;102350.91;5117523;28;20382;-36
2023/02/20 04:06:24;;;;;;;35.05;23.63;;;;;;;5.37;100.00;102362.16;5116893;27;20030;-36
2023/02/20 04:08:58;;;;;;;29.75;23.15;;;;;;;5.39;100.00;102356.63;5117157;28;20023;-36
2023/02/20 04:11:41;;;;;;;31.85;22.45;;;;;;;5.43;100.00;102366.88;5116801;28;20036;-36
2023/02/20 04:14:08;;;;;;;28.45;21.63;;;;;;;5.47;100.00;102366.56;5117126;28;20371;-36
2023/02/20 04:16:41;;;;;;;27.92;22.33;;;;;;;5.51;100.00;102365.22;5116959;28;20463;-35
2023/02/20 04:19:07;;;;;;;29.35;22.35;;;;;;;5.55;100.00;102366.59;5116914;27;20039;-35
2023/02/20 04:21:42;;;;;;;31.58;22.58;;;;;;;5.51;100.00;102357.19;5117656;28;20024;-35
2023/02/20 04:24:15;;;;;;;27.25;21.08;;;;;;;5.55;100.00;102356.69;5116490;28;20019;-35
2023/02/20 04:26:41;;;;;;;30.15;22.40;;;;;;;5.62;100.00;102375.69;5116742;27;20471;-36
2023/02/20 04:29:07;;;;;;;26.52;21.17;;;;;;;5.57;100.00;102351.19;5116698;28;20031;-36
2023/02/20 04:31:32;;;;;;;26.10;21.30;;;;;;;5.65;100.00;102362.78;5116652;28;20066;-36
2023/02/20 04:33:58;;;;;;;28.02;20.80;;;;;;;5.65;100.00;102368.16;5115290;28;20028;-35
2023/02/20 04:36:25;;;;;;;25.83;19.80;;;;;;;5.63;100.00;102355.91;5116551;28;20386;-35
2023/02/20 04:38:50;;;;;;;25.20;20.35;;;;;;;5.68;100.00;102364.31;5116168;28;20076;-36
2023/02/20 04:41:16;;;;;;;26.30;20.65;;;;;;;5.70;100.00;102373.03;5116444;28;20031;-36
2023/02/20 04:43:41;;;;;;;24.13;18.70;;;;;;;5.74;100.00;102378.94;5116486;28;20034;-36
2023/02/20 04:46:07;;;;;;;24.10;20.10;;;;;;;5.68;100.00;102367.00;5116148;28;20038;-36
2023/02/20 04:48:32;;;;;;;25.40;19.47;;;;;;;5.76;100.00;102374.22;5116699;28;20031;-37
2023/02/20 04:50:58;;;;;;;25.50;20.73;;;;;;;5.76;100.00;102374.22;5116353;28;20285;-38
2023/02/20 04:53:23;;;;;;;27.83;20.17;;;;;;;5.78;100.00;102374.91;5116327;27;20331;-37
2023/02/20 04:55:49;;;;;;;27.95;20.17;;;;;;;5.79;100.00;102372.06;5117055;28;20016;-37
2023/02/20 04:58:14;;;;;;;24.63;18.13;;;;;;;5.73;100.00;102367.34;5115953;28;20035;-37
2023/02/20 05:00:39;;;;;;;23.77;19.67;;;;;;;5.81;100.00;102375.44;5115822;28;20020;-37
2023/02/20 05:03:05;;;;;;;28.63;20.40;;;;;;;5.75;100.00;102362.66;5116365;28;20071;-37
2023/02/20 05:05:30;;;;;;;23.13;19.97;;;;;;;5.83;100.00;102375.28;5116077;28;20486;-37
2023/02/20 05:07:58;;;;;;;25.50;19.70;;;;;;;5.84;100.00;102364.38;5115688;28;20046;-36
2023/02/20 05:10:25;;;;;;;26.15;20.40;;;;;;;5.82;100.00;102365.53;5115916;28;20030;-37
2023/02/20 05:12:51;;;;;;;29.48;21.52;;;;;;;5.85;100.00;102374.09;5115541;28;20525;-36
2023/02/20 05:15:17;;;;;;;29.80;21.00;;;;;;;5.87;100.00;102366.72;5115860;28;20487;-36
2023/02/20 05:17:42;;;;;;;26.75;20.15;;;;;;;5.88;100.00;102365.72;5115459;28;20020;-36
2023/02/20 05:20:08;;;;;;;26.50;21.17;;;;;;;5.84;100.00;102361.69;5115430;28;20107;-38
2023/02/20 05:22:34;;;;;;;31.45;21.42;;;;;;;5.90;100.00;102371.78;5115470;28;20023;-36
2023/02/20 05:24:59;;;;;;;27.90;20.83;;;;;;;5.94;100.00;102373.16;5116006;28;20081;-36
2023/02/20 05:27:25;;;;;;;25.93;21.73;;;;;;;5.94;100.00;102361.56;5115583;28;20072;-36
2023/02/20 05:29:53;;;;;;;24.02;20.73;;;;;;;5.96;100.00;102364.13;5115905;28;20111;-36
2023/02/20 05:32:20;;;;;;;25.52;21.50;;;;;;;5.96;100.00;102364.94;5115451;28;20024;-36
2023/02/20 05:34:46;;;;;;;26.75;22.52;;;;;;;5.99;100.00;102374.50;5115548;28;20030;-36
2023/02/20 05:37:13;;;;;;;25.63;20.88;;;;;;;5.99;100.00;102369.13;5115750;28;20024;-36
2023/02/20 05:39:38;;;;;;;25.23;20.85;;;;;;;6.00;100.00;102376.19;5115666;28;20030;-36
2023/02/20 05:42:05;;;;;;;24.20;21.20;;;;;;;6.01;100.00;102377.88;5115303;28;20031;-37
2023/02/20 05:44:30;;;;;;;;;;;;;;;6.05;100.00;102371.16;5116582;28;20107;-35
2023/02/20 05:46:55;;;;;;;26.27;21.63;;;;;;;6.02;100.00;102364.28;5115252;28;19947;-36
2023/02/20 05:49:22;;;;;;;24.97;19.90;;;;;;;6.06;100.00;102364.81;5115215;28;20289;-35
2023/02/20 05:51:49;;;;;;;25.10;19.95;;;;;;;5.99;100.00;102348.50;5115347;28;20032;-36
2023/02/20 05:54:15;;;;;;;24.60;20.48;;;;;;;6.09;100.00;102369.84;5115877;28;20474;-35
2023/02/20 05:56:41;;;;;;;;;;;;;;;6.13;100.00;102371.19;5115432;28;20039;-36
2023/02/20 05:59:06;;;;;;;25.73;19.20;;;;;;;6.11;100.00;102368.69;5115554;28;19922;-36
2023/02/20 06:01:32;;;;;;;21.73;18.50;;;;;;;6.12;100.00;102367.66;5114409;28;20417;-36
2023/02/20 06:04:00;;;;;;;26.60;19.33;;;;;;;6.14;100.00;102365.66;5115187;28;20034;-35
2023/02/20 06:06:33;;;;;;;23.25;19.45;;;;;;;6.14;100.00;102370.19;5114805;28;20323;-36
2023/02/20 06:08:59;;;;;;;25.23;17.92;;;;;;;6.15;100.00;102364.66;5115077;28;20023;-36
2023/02/20 06:11:24;;;;;;;23.63;18.75;;;;;;;6.17;100.00;102356.44;5113928;28;20038;-35
2023/02/20 06:13:50;;;;;;;23.40;17.80;;;;;;;6.10;100.00;102348.22;5114385;28;20169;-36
2023/02/20 06:16:22;;;;;;;23.87;18.00;;;;;;;6.17;100.00;102361.81;5114771;28;20028;-36
2023/02/20 06:18:47;;;;;;;24.40;18.60;;;;;;;6.19;100.00;102367.84;5114958;28;20452;-35
2023/02/20 06:21:12;;;;;;;23.37;17.77;;;;;;;6.09;100.00;102351.03;5114489;28;20031;-35
2023/02/20 06:23:38;;;;;;;20.73;17.30;;;;;;;6.21;100.00;102363.16;5114325;28;20035;-36
2023/02/20 06:26:05;;;;;;;23.92;17.85;;;;;;;6.22;100.00;102374.75;5114416;28;20522;-36
2023/02/20 06:28:31;;;;;;;22.42;17.52;;;;;;;6.23;100.00;102374.56;5114092;28;20471;-36
2023/02/20 06:30:56;;;;;;;25.65;18.83;;;;;;;6.23;100.00;102371.03;5114748;28;20080;-36
2023/02/20 06:33:21;;;;;;;21.97;17.47;;;;;;;6.25;100.00;102383.31;5114443;28;20051;-36
2023/02/20 06:35:47;;;;;;;23.30;18.53;;;;;;;6.26;100.00;102376.09;5114325;28;20490;-36
2023/02/20 06:38:12;;;;;;;24.07;17.70;;;;;;;6.26;100.00;102387.69;5114611;28;20031;-36
2023/02/20 06:40:38;;;;;;;21.20;18.60;;;;;;;6.24;100.00;102378.09;5114257;28;20020;-35
2023/02/20 06:43:04;;;;;;;24.02;19.15;;;;;;;6.27;100.00;102377.78;5114136;28;20035;-36
2023/02/20 06:45:29;;;;;;;26.55;20.08;;;;;;;6.29;100.00;102375.75;5114540;28;20383;-35
2023/02/20 06:47:54;;;;;;;24.63;20.03;;;;;;;6.27;100.00;102364.34;5114150;28;20027;-36
2023/02/20 06:50:20;;;;;;;26.83;20.53;;;;;;;6.29;100.00;102360.47;5114963;28;20027;-36
2023/02/20 06:52:45;;;;;;;24.77;21.13;;;;;;;6.30;100.00;102370.22;5114065;28;20119;-36
2023/02/20 06:55:10;;;;;;;30.50;23.17;;;;;;;6.24;100.00;102359.28;5114491;28;20250;-36
2023/02/20 06:57:36;;;;;;;26.87;21.97;;;;;;;6.30;100.00;102375.59;5113736;28;20030;-36
2023/02/20 07:00:03;;;;;;;29.93;22.87;;;;;;;6.31;100.00;102371.06;5114320;28;20024;-36
2023/02/20 07:02:29;;;;;;;27.15;22.30;;;;;;;6.31;100.00;102374.59;5113889;28;20111;-36
2023/02/20 07:04:54;;;;;;;30.07;22.73;;;;;;;6.25;100.00;102364.53;5113770;28;20463;-36
2023/02/20 07:07:19;;;;;;;30.00;21.97;;;;;;;6.30;100.00;102380.13;5113897;28;20035;-36
2023/02/20 07:09:45;;;;;;;26.47;22.47;;;;;;;6.34;100.00;102385.00;5113993;28;20041;-36
2023/02/20 07:12:10;;;;;;;23.97;21.50;;;;;;;6.33;100.00;102377.94;5114569;28;20106;-36
2023/02/20 07:14:36;;;;;;;31.90;22.05;;;;;;;6.36;100.00;102387.53;5114489;28;20020;-36
2023/02/20 07:17:01;;;;;;;27.67;21.43;;;;;;;6.37;100.00;102379.31;5113892;28;20024;-36
2023/02/20 07:19:26;;;;;;;28.73;20.90;;;;;;;6.32;100.00;102376.25;5114166;28;20034;-36
2023/02/20 07:21:52;;;;;;;26.10;21.83;;;;;;;6.32;100.00;102373.59;5114034;28;20027;-36
2023/02/20 07:24:17;;;;;;;24.47;21.40;;;;;;;6.39;100.00;102373.75;5117327;28;20024;-36
2023/02/20 07:26:43;;;;;;;27.63;21.33;;;;;;;6.39;100.00;102371.94;5117772;28;20023;-35
2023/02/20 07:29:08;;;;;;;26.40;21.70;;;;;;;6.36;100.00;102366.88;5118240;28;20257;-36
2023/02/20 07:31:34;;;;;;;26.73;21.23;;;;;;;6.41;100.00;102375.28;5117605;28;20052;-36
2023/02/20 07:33:59;;;;;;;25.23;20.03;;;;;;;6.42;100.00;102370.75;5118183;28;20028;-36
2023/02/20 07:36:25;;;;;;;23.23;20.60;;;;;;;6.43;100.00;102372.41;5118367;28;20367;-36
2023/02/20 07:38:55;;;;;;;25.73;21.20;;;;;;;6.44;100.00;102368.72;5117728;28;20019;-36
2023/02/20 07:41:21;;;;;;;28.02;21.20;;;;;;;6.43;100.00;102378.63;5118486;28;20393;-36
2023/02/20 07:43:47;;;;;;;25.40;20.50;;;;;;;6.41;100.00;102375.28;5116647;28;20387;-36
2023/02/20 07:46:12;;;;;;;22.63;20.23;;;;;;;6.48;100.00;102385.34;5117936;27;20031;-36
2023/02/20 07:48:37;;;;;;;22.87;20.40;;;;;;;6.42;100.00;102371.56;5117350;28;20028;-36
2023/02/20 07:51:03;;;;;;;27.40;20.27;;;;;;;6.51;100.00;102376.97;5116339;28;20483;-36
2023/02/20 07:53:28;;;;;;;24.02;20.75;;;;;;;6.51;100.00;102379.66;5117464;28;20020;-36
2023/02/20 07:55:54;;;;;;;26.53;20.37;;;;;;;6.52;100.00;102392.09;5117736;27;20035;-37
2023/02/20 07:58:19;;;;;;;23.90;20.67;;;;;;;6.52;100.00;102378.66;5117108;28;20063;-36
2023/02/20 08:00:45;;;;;;;26.48;20.58;;;;;;;6.49;100.00;102376.28;5117342;28;20032;-39
2023/02/20 08:03:10;;;;;;;23.33;20.70;;;;;;;6.58;100.00;102383.34;5117037;28;20055;-36
2023/02/20 08:05:35;;;;;;;25.90;20.43;;;;;;;6.59;100.00;102376.97;5118055;28;20023;-36
2023/02/20 08:08:01;;;;;;;25.43;20.50;;;;;;;6.61;100.00;102381.16;5117004;28;20356;-36
2023/02/20 08:10:28;;;;;;;23.50;19.87;;;;;;;6.63;100.00;102378.31;5116829;28;20055;-36
2023/02/20 08:12:54;;;;;;;24.98;19.50;;;;;;;6.58;100.00;102364.53;5117064;28;20119;-36
2023/02/20 08:15:21;;;;;;;23.83;19.58;;;;;;;6.65;100.00;102371.78;5117350;28;20499;-36
2023/02/20 08:17:47;;;;;;;23.80;19.33;;;;;;;6.65;100.00;102370.94;5117015;28;20032;-36
2023/02/20 08:20:16;;;;;;;24.70;20.77;;;;;;;6.67;100.00;102368.91;5117022;28;20049;-35
2023/02/20 08:22:43;;;;;;;27.98;20.10;;;;;;;6.68;100.00;102365.19;5116607;28;20030;-36
2023/02/20 08:25:09;;;;;;;26.08;20.10;;;;;;;6.69;100.00;102367.75;5116909;28;20032;-36
2023/02/20 08:27:37;;;;;;;22.08;19.25;;;;;;;6.72;100.00;102363.84;5116857;27;20024;-36
2023/02/20 08:30:04;;;;;;;21.83;18.95;;;;;;;6.76;100.00;102362.53;5116502;28;20039;-36
2023/02/20 08:32:30;;;;;;;22.05;18.58;;;;;;;6.78;100.00;102373.94;5116975;27;20459;-35
2023/02/20 08:34:55;;;;;;;22.13;17.70;;;;;;;6.80;100.00;102371.94;5116792;28;20061;-36
2023/02/20 08:37:20;;;;;;;23.03;18.47;;;;;;;6.81;100.00;102368.22;5117281;28;20035;-36
2023/02/20 08:39:48;;;;;;;25.07;18.57;;;;;;;6.82;100.00;102359.16;5116342;28;20024;-36
2023/02/20 08:42:16;;;;;;;26.83;19.33;;;;;;;6.79;100.00;102359.50;5116471;28;20027;-36
2023/02/20 08:44:41;;;;;;;22.40;17.90;;;;;;;6.87;100.00;102370.22;5115824;28;20031;-37
2023/02/20 08:47:06;;;;;;;26.83;18.98;;;;;;;6.90;100.00;102363.69;5116766;28;20068;-37
2023/02/20 08:49:32;;;;;;;21.50;17.87;;;;;;;6.91;100.00;102360.81;5116475;28;20471;-37
2023/02/20 08:51:57;;;;;;;22.67;17.47;;;;;;;6.87;100.00;102347.88;5116397;28;20483;-35
2023/02/20 08:54:22;;;;;;;21.65;18.40;;;;;;;6.88;100.00;102339.66;5117165;28;20456;-35
2023/02/20 08:56:48;;;;;;;23.17;17.73;;;;;;;6.98;100.00;102369.06;5116250;28;20034;-35
2023/02/20 08:59:13;;;;;;;21.77;16.80;;;;;;;7.00;100.00;102356.28;5116615;28;20063;-36
2023/02/20 09:01:42;;;;;;;24.33;18.30;;;;;;;7.03;100.00;102363.16;5116079;28;20031;-37
2023/02/20 09:04:09;;;;;;;21.35;16.88;;;;;;;7.01;100.00;102359.81;5116799;28;20047;-35
2023/02/20 09:06:35;;;;;;;23.58;17.17;;;;;;;7.04;100.00;102368.38;5116142;28;20062;-36
2023/02/20 09:09:01;;;;;;;23.13;17.95;;;;;;;7.07;100.00;102369.88;5116048;28;20063;-36
2023/02/20 09:11:27;;;;;;;23.92;16.80;;;;;;;7.09;100.00;102371.41;5116475;28;20039;-35
2023/02/20 09:13:52;;;;;;;22.35;16.45;;;;;;;7.12;100.00;102367.50;5115711;28;20422;-37
2023/02/20 09:16:21;;;;;;;23.70;17.17;;;;;;;7.13;100.00;102364.66;5116449;28;20039;-39
2023/02/20 09:18:47;;;;;;;24.48;17.38;;;;;;;7.13;100.00;102366.53;5115592;28;20028;-36
2023/02/20 09:21:16;;;;;;;22.83;16.98;;;;;;;7.09;100.00;102346.34;5116597;28;20035;-36
2023/02/20 09:23:41;;;;;;;23.00;15.75;;;;;;;7.17;100.00;102360.63;5115714;28;20048;-36
2023/02/20 09:26:07;;;;;;;19.40;16.03;;;;;;;7.19;100.00;102358.59;5115830;28;20023;-36
2023/02/20 09:28:32;;;;;;;19.33;15.40;;;;;;;7.18;100.00;102358.78;5115693;28;20028;-36
2023/02/20 09:30:59;;;;;;;21.17;15.70;;;;;;;7.26;100.00;102352.53;5116170;28;20027;-36
2023/02/20 09:33:26;;;;;;;21.17;14.32;;;;;;;7.28;100.00;102362.13;5115523;28;20114;-36
2023/02/20 09:35:53;;;;;;;20.83;15.40;;;;;;;7.29;100.00;102369.16;5115552;27;20034;-36
2023/02/20 09:38:25;;;;;;;19.65;15.25;;;;;;;7.24;100.00;102355.38;5115368;28;20057;-36
2023/02/20 09:40:56;;;;;;;19.58;15.52;;;;;;;7.30;100.00;102365.47;5115734;27;20044;-36
2023/02/20 09:43:54;;;;;;;19.58;16.00;;;;;;;7.32;100.00;102354.50;5115654;28;20383;-36
2023/02/20 09:46:20;;;;;;;;;;;;;;;7.37;100.00;102371.84;5115292;27;20023;-36
2023/02/20 09:48:54;;;;;;;18.17;15.95;;;;;;;7.37;100.00;102370.97;5114952;28;20375;-36
2023/02/20 09:51:23;;;;;;;22.58;16.08;;;;;;;7.36;100.00;102363.94;5115526;28;20076;-36
2023/02/20 09:54:16;;;;;;;21.35;17.05;;;;;;;7.37;100.00;102353.00;5115150;28;20112;-36
2023/02/20 09:56:48;;;;;;;19.77;16.85;;;;;;;7.31;100.00;102336.69;5115414;28;20027;-36
2023/02/20 09:59:58;;;;;;;22.67;17.67;;;;;;;7.39;100.00;102347.44;5115011;28;20044;-36
2023/02/20 10:02:30;;;;;;;22.38;17.58;;;;;;;7.42;100.00;102349.81;5110983;28;20122;-36
2023/02/20 10:05:03;;;;;;;24.70;20.88;;;;;;;7.32;100.00;102341.94;5113987;28;20114;-36
2023/02/20 10:07:30;;;;;;;22.15;19.65;;;;;;;7.41;100.00;102353.47;5114645;28;20028;-36
2023/02/20 10:09:57;;;;;;;25.38;20.05;;;;;;;7.41;100.00;102361.56;5115125;28;20058;-36
2023/02/20 10:12:36;;;;;;;25.60;19.42;;;;;;;7.42;100.00;102364.09;5114708;28;20042;-36
2023/02/20 10:15:07;;;;;;;25.38;19.73;;;;;;;7.43;100.00;102351.47;5114475;28;20038;-36
2023/02/20 10:17:37;;;;;;;21.77;18.60;;;;;;;7.44;100.00;102355.84;5115192;28;20421;-36
2023/02/20 10:20:02;;;;;;;27.65;20.83;;;;;;;7.44;100.00;102362.06;5115028;28;20028;-36
2023/02/20 10:23:15;;;;;;;25.53;22.77;;;;;;;7.46;100.00;102362.72;5114824;28;20031;-36
2023/02/20 10:25:47;;;;;;;26.80;21.75;;;;;;;7.47;100.00;102375.19;5107165;28;20273;-36
2023/02/20 10:28:17;;;;;;;25.92;22.80;;;;;;;7.48;100.00;102371.47;5115080;28;20111;-36
2023/02/20 10:30:51;;;;;;;26.23;21.02;;;;;;;7.51;100.00;102366.75;5114687;28;20031;-36
2023/02/20 10:33:25;;;;;;;28.75;22.35;;;;;;;7.53;100.00;102354.81;5114129;28;20069;-36
2023/02/20 10:35:59;;;;;;;26.38;22.95;;;;;;;7.46;100.00;102343.88;5114149;28;20028;-36
2023/02/20 10:38:32;;;;;;;33.28;23.83;;;;;;;7.55;100.00;102363.53;5114646;28;20028;-36
2023/02/20 10:41:19;;;;;;;26.63;23.77;;;;;;;7.54;100.00;102350.25;5114069;28;20061;-36
2023/02/20 10:44:17;;;;;;;30.98;23.40;;;;;;;7.60;100.00;102365.69;5114373;28;20028;-36
2023/02/20 10:47:00;;;;;;;27.40;22.42;;;;;;;7.58;100.00;102356.97;5080010;28;20375;-36
2023/02/20 10:49:36;;;;;;;24.98;21.35;;;;;;;7.50;100.00;102333.59;5114469;28;20035;-36
2023/02/20 10:52:06;;;;;;;27.25;22.98;;;;;;;7.58;100.00;102347.03;5114526;28;20035;-36
2023/02/20 10:54:43;;;;;;;26.92;21.75;;;;;;;7.58;100.00;102338.13;5114241;28;20055;-36
2023/02/20 10:57:15;;;;;;;28.23;21.73;;;;;;;7.61;100.00;102343.13;5113975;28;20039;-36
2023/02/20 10:59:58;;;;;;;27.58;22.85;;;;;;;7.60;100.00;102347.69;5114694;28;20429;-36
2023/02/20 11:02:29;;;;;;;25.90;21.30;;;;;;;7.64;100.00;102348.19;5114288;28;20138;-36
2023/02/20 11:05:01;;;;;;;23.85;21.10;;;;;;;7.64;100.00;102353.56;5114859;28;20051;-36
2023/02/20 11:07:26;;;;;;;28.88;22.17;;;;;;;7.66;100.00;102351.53;5114850;28;20055;-37
2023/02/20 11:09:54;;;;;;;26.57;21.17;;;;;;;7.65;100.00;102352.56;5114594;28;20070;-36
2023/02/20 11:13:04;;;;;;;23.92;20.13;;;;;;;7.66;100.00;102359.59;5113679;28;20783;-37
2023/02/20 11:15:33;;;;;;;25.52;19.50;;;;;;;7.66;100.00;102354.22;5096034;28;20123;-36
2023/02/20 11:17:59;;;;;;;32.10;19.40;;;;;;;7.67;100.00;102355.94;5114472;28;20051;-36
2023/02/20 11:20:45;;;;;;;20.13;17.38;;;;;;;7.67;100.00;102356.75;5113635;28;20059;-35
2023/02/20 11:23:35;;;;;;;23.80;17.92;;;;;;;7.69;100.00;102370.03;5113882;28;20072;-36
2023/02/20 11:26:14;;;;;;;21.35;15.57;;;;;;;7.67;100.00;102364.00;5114238;28;20023;-36
2023/02/20 11:28:40;;;;;;;21.55;16.83;;;;;;;7.67;100.00;102350.53;5113527;28;20028;-37
2023/02/20 11:31:07;;;;;;;26.00;16.67;;;;;;;7.66;100.00;102338.06;5114104;28;20092;-37
2023/02/20 11:33:41;;;;;;;22.45;15.70;;;;;;;7.65;100.00;102349.84;5114597;28;20402;-36
2023/02/20 11:36:14;;;;;;;24.38;15.60;;;;;;;7.68;100.00;102361.13;5113502;28;20058;-37
2023/02/20 11:38:41;;;;;;;21.98;15.70;;;;;;;7.68;100.00;102357.59;5114038;28;20462;-37